Cloncurry, Australia
Current Conditions -  °F | °C
As of 10:00 AM on Saturday 29 Nov 2014 (Local Time) from YBMA Reporting Station
Clear Clear  
Wind Chill: 90°   Ceiling: Unl
Heat Index: 90°   Visibility: 6mi
Dew Point: 63°   Wind: 6mph
Humidity: 40%   Direction: 20°NNE
Pressure: 29.85"   Gusts: NA
Location:  20.7°S, 140.51°E
Report Text: YBMA 290000Z AUTO 02005KT 9999 // NCD 32/17 Q1011
Loading
Personal Weather Stations






























Interactive Weather Map New forecast layout! Learn more

10-Day Weather Forecast

Advertisements
Track Severe Weather on mobile